• Join FlightAware (Why Join?)
  • Login
  • US Flag 
11:05PM EDT


 

Airport Tracker/Info


-or-


 

Live Flight TrackerFlight Track Log ✈ SWA864 ✈ 01-Jun-2013 ✈ KSAT - KMCO

Flight Track Log - Related Links

Times and Time Zones

All times are in EDT time to prevent confusion due to time zone crossing. See the SWA864 flight status page for this flight to view local times or setup timezone preferences in your user account.

Time Position Orientation Groundspeed Altitude Reporting Facility
EDT Latitude Longitude Course Direction KTS MPH feet Rate Location/Type
04:14PM 29.5167 -98.4483 126° Southeast 161 185 2,200  Level Houston Center
04:15PM 29.4947 -98.3903 113° Southeast 224 258 4,100 2,340 Climbing Houston Center
04:16PM 29.5253 -98.3028 68° East 278 320 7,000 3,120 Climbing Houston Center
04:17PM 29.5478 -98.2133 74° East 291 335 10,500 2,460 Climbing Houston Center
04:18PM 29.5789 -98.1017 72° East 353 406 12,100 1,980 Climbing Houston Center
04:19PM 29.6100 -97.9853 73° East 380 437 14,700 2,520 Climbing Houston Center
04:20PM 29.6436 -97.8631 72° East 401 461 17,400 2,340 Climbing Houston Center
04:21PM 29.6542 -97.7189 85° East 438 504 19,600 2,280 Climbing Houston Center
04:23PM 29.6556 -97.5792 89° East 439 505 22,200 2,220 Climbing Houston Center
04:24PM 29.6575 -97.4353 89° East 447 514 24,200 1,740 Climbing Houston Center
04:25PM 29.6583 -97.2831 90° East 469 540 25,800 1,500 Climbing Houston Center
04:26PM 29.6469 -97.1267 95° East 488 562 27,400 1,500 Climbing Houston Center
04:27PM 29.6306 -96.9661 97° East 501 577 29,000 1,740 Climbing Houston Center
04:28PM 29.6139 -96.8031 97° East 505 581 31,100 1,920 Climbing Houston Center
04:29PM 29.5983 -96.6428 96° East 501 577 33,000 1,740 Climbing Houston Center
04:30PM 29.5767 -96.4539 97° East 496 571 34,800 1,560 Climbing Houston Center
04:31PM 29.5594 -96.2981 97° East 491 565 36,300 1,020 Climbing Houston Center
04:32PM 29.5419 -96.1419 97° East 490 564 37,000 300 Climbing Houston Center
04:33PM 29.5250 -95.9911 97° East 488 562 37,000  Level Houston Center
04:34PM 29.5075 -95.8367 97° East 490 564 37,000  Level Houston Center
04:35PM 29.4903 -95.6822 97° East 489 563 37,000  Level Houston Center
04:36PM 29.4692 -95.4989 97° East 487 560 37,000  Level Houston Center
04:37PM 29.4503 -95.3483 98° East 485 558 37,000  Level Houston Center
04:38PM 29.4322 -95.1972 98° East 487 560 37,000  Level Houston Center
04:39PM 29.4153 -95.0467 97° East 487 560 37,000  Level Houston Center
04:40PM 29.3947 -94.8661 97° East 482 555 37,000  Level Houston Center
04:41PM 29.3772 -94.7119 97° East 489 563 37,000  Level Houston Center
04:42PM 29.3583 -94.5581 98° East 490 564 37,000  Level Houston Center
04:43PM 29.3392 -94.4028 98° East 491 565 37,000  Level Houston Center
04:44PM 29.3200 -94.2492 98° East 490 564 37,000  Level Houston Center
04:45PM 29.3011 -94.0953 98° East 491 565 37,000  Level Houston Center
04:46PM 29.2775 -93.9086 98° East 495 570 37,000  Level Houston Center
04:47PM 29.2592 -93.7631 98° East 494 568 37,000  Level Houston Center
04:48PM 29.2394 -93.6083 98° East 493 567 37,000  Level Houston Center
04:49PM 29.2181 -93.4544 99° East 493 567 37,000  Level Houston Center
04:50PM 29.1939 -93.2694 98° East 492 566 37,000  Level Houston Center
04:51PM 29.1742 -93.1133 98° East 497 572 37,000  Level Houston Center
04:52PM 29.1525 -92.9592 99° East 495 570 37,000  Level Houston Center
04:53PM 29.1322 -92.8050 99° East 493 567 37,000  Level Houston Center
04:54PM 29.1108 -92.6522 99° East 490 564 37,000  Level Houston Center
04:55PM 29.0908 -92.4986 98° East 489 563 37,000  Level Houston Center
04:57PM 29.0672 -92.3150 98° East 490 564 37,000  Level Houston Center
04:58PM 29.0433 -92.1628 100° East 490 564 37,000  Level Houston Center
04:59PM 29.0211 -92.0092 99° East 492 566 37,000  Level Houston Center
05:00PM 28.9994 -91.8528 99° East 499 574 37,000  Level Houston Center
05:01PM 28.9758 -91.6864 99° East 499 574 37,000  Level Houston Center
05:02PM 28.9533 -91.5300 99° East 501 577 37,000  Level Houston Center
05:03PM 28.9300 -91.3742 100° East 501 577 37,000  Level Houston Center
05:04PM 28.9075 -91.2197 99° East 496 571 37,000  Level Houston Center
05:05PM 28.8800 -91.0364 100° East 490 564 37,000  Level Houston Center
05:06PM 28.8561 -90.8808 100° East 498 573 37,000  Level Houston Center
05:07PM 28.8319 -90.7256 100° East 500 575 37,000  Level Houston Center
05:08PM 28.8092 -90.5700 99° East 500 575 37,000  Level Houston Center
05:09PM 28.7850 -90.4144 100° East 501 577 37,000  Level Houston Center
05:10PM 28.7608 -90.2583 100° East 501 577 37,000  Level Houston Center
05:11PM 28.7297 -90.0742 101° East 497 572 37,000  Level Houston Center
05:12PM 28.6942 -89.9233 105° East 495 570 37,000  Level Houston Center
05:13PM 28.6569 -89.7742 106° East 494 568 37,000  Level Houston Center
05:14PM 28.6189 -89.6258 106° East 492 566 37,000  Level Houston Center
05:15PM 28.5814 -89.4764 106° East 496 571 37,000  Level Houston Center
05:16PM 28.5439 -89.3286 106° East 490 564 37,000  Level Houston Center
05:17PM 28.4981 -89.1511 106° East 490 564 37,000  Level Houston Center
05:18PM 28.4633 -89.0014 105° East 491 565 37,000  Level Houston Center
05:19PM 28.4283 -88.8525 105° East 490 564 37,000  Level Houston Center
05:20PM 28.3919 -88.7031 105° East 493 567 37,000  Level Houston Center
05:21PM 28.3586 -88.5533 104° East 491 565 37,000  Level Houston Center
05:22PM 28.3378 -88.3989 99° East 495 570 37,000  Level Houston Center
05:23PM 28.3144 -88.2119 98° East 498 573 37,000  Level Houston Center
05:24PM 28.2956 -88.0717 99° East 499 574 37,000  Level Houston Center
05:25PM 28.2750 -87.9178 99° East 495 570 37,000  Level Houston Center
05:26PM 28.2489 -87.7311 99° East 500 575 37,000  Level Houston Center
05:27PM 28.2278 -87.5781 99° East 496 571 37,000  Level Houston Center
05:28PM 28.2067 -87.4258 99° East 492 566 37,000  Level Houston Center
05:30PM 28.1856 -87.2753 99° East 488 562 37,000  Level Houston Center
05:31PM 28.1642 -87.1228 99° East 490 564 37,000  Level Houston Center
05:32PM 28.1431 -86.9717 99° East 490 564 37,000  Level Houston Center
05:33PM 28.1169 -86.7900 99° East 490 564 37,000  Level Houston Center
05:34PM 28.0953 -86.6425 99° East 489 563 37,000  Level Jacksonville Center
05:35PM 28.0725 -86.4864 99° East 494 568 37,000  Level Jacksonville Center
05:36PM 28.0478 -86.3328 100° East 487 560 37,000  Level Jacksonville Center
05:37PM 28.0267 -86.1792 99° East 494 568 37,000  Level Jacksonville Center
05:38PM 28.0033 -86.0281 100° East 483 556 37,000  Level Jacksonville Center
05:39PM 27.9797 -85.8769 100° East 491 565 37,000  Level Jacksonville Center
05:40PM 27.9581 -85.7283 99° East 490 564 37,000  Level Jacksonville Center
05:42PM 27.9061 -85.4097 100° East 502 578 37,000  Level Miami Center
05:43PM 27.8858 -85.2606 99° East 502 578 37,000  Level Miami Center
05:44PM 27.8636 -85.1064 99° East 497 572 37,000  Level Miami Center
05:45PM 27.8369 -84.9522 101° East 492 566 37,000  Level Miami Center
05:46PM 27.8119 -84.8003 101° East 492 566 37,000  Level Miami Center
05:47PM 27.7953 -84.6469 97° East 492 566 37,000  Level Miami Center
05:48PM 27.7908 -84.4967 92° East 478 550 37,000  Level Miami Center
05:49PM 27.8686 -84.3681 56° Northeast 456 525 37,000  Level Miami Center
05:50PM 27.9439 -84.2439 56° Northeast 456 525 37,000 -300 Level Miami Center
05:51PM 28.0272 -84.1203 53° Northeast 469 540 36,400 -1,800 Descending Miami Center
05:52PM 28.1022 -83.9981 55° Northeast 475 547 33,500 -3,300 Descending Miami Center
05:53PM 28.1794 -83.8767 54° Northeast 482 555 30,000 -3,180 Descending Jacksonville Center
05:54PM 28.2556 -83.7503 56° Northeast 512 589 27,300 -2,520 Descending Jacksonville Center
05:55PM 28.3294 -83.6331 54° Northeast 494 568 25,000 -1,740 Descending Jacksonville Center
05:56PM 28.3989 -83.5203 55° Northeast 460 529 23,900 -1,680 Descending Jacksonville Center
05:57PM 28.4536 -83.3978 63° Northeast 440 506 21,700 -1,680 Descending Jacksonville Center
05:58PM 28.4875 -83.2681 73° East 418 481 20,600 -1,020 Descending Jacksonville Center
05:59PM 28.5150 -83.1406 76° East 418 481 19,700 -960 Descending Jacksonville Center
06:00PM 28.5442 -83.0156 75° East 413 475 18,700 -900 Descending Jacksonville Center
06:01PM 28.5672 -82.8997 77° East 398 458 18,000 -600 Descending Jacksonville Center
06:02PM 28.5881 -82.7839 78° East 387 445 17,500 -600 Descending Jacksonville Center
06:03PM 28.6089 -82.6633 79° East 381 438 16,900 -720 Descending Jacksonville Center
06:04PM 28.6400 -82.5519 72° East 374 430 16,100 -840 Descending Jacksonville Center
06:05PM 28.6833 -82.4383 66° East 374 430 15,300 -780 Descending Jacksonville Center
06:06PM 28.7289 -82.3244 65° Northeast 386 444 14,600 -660 Descending Jacksonville Center
06:07PM 28.7722 -82.2103 67° East 391 450 14,000 -780 Descending Jacksonville Center
06:08PM 28.8175 -82.1011 65° Northeast 385 443 13,100 -1,500 Descending Jacksonville Center
06:09PM 28.8606 -81.9869 67° East 380 437 11,000 -1,080 Descending Jacksonville Center
06:10PM 28.8597 -81.8944 91° East 331 381 11,000 -360 Level Jacksonville Center
06:11PM 28.8131 -81.8119 123° Southeast 293 337 10,300 -900 Descending Jacksonville Center
06:12PM 28.7811 -81.7294 114° Southeast 288 331 9,300 -720 Descending Jacksonville Center
06:13PM 28.7636 -81.6372 102° East 288 331 8,900 -900 Descending Jacksonville Center
06:13PM 28.7500 -81.6000 113° Southeast 289 333 8,100 -1,680 Descending Orlando TRACON
06:14PM 28.7333 -81.5333 106° East 280 322 6,800 -1,200 Descending Orlando TRACON
06:15PM 28.7167 -81.4500 103° East 251 289 5,900 -900 Descending Orlando TRACON
06:16PM 28.6833 -81.3833 120° Southeast 231 266 5,000 -1,200 Descending Orlando TRACON
06:17PM 28.6683 -81.3356 110° East 235 270 3,900 -1,080 Descending Jacksonville Center
06:18PM 28.6167 -81.2833 138° Southeast 217 250 3,000 -720 Descending Orlando TRACON
06:19PM 28.5667 -81.2833 180° South 208 239 2,300 -840 Descending Orlando TRACON
06:20PM 28.5167 -81.2833 180° South 189 217 1,500 -900 Descending Orlando TRACON
06:21PM 28.4667 -81.2833 180° South 140 161 700 -780 Descending Orlando TRACON
06:23PM 28.4294 -81.3090 180° South  Level Estimated
06:30PM 28.4294 -81.3090 24° Northeast  Level Estimated
06:31PM 28.4294 -81.3090 24° Northeast  Level Estimated
06:32PM 28.4294 -81.3090 24° Northeast  Level Estimated
06:33PM 28.4294 -81.3090 24° Northeast  Level Estimated